Terminal Aerodrome Forecast
Issued by NWS Charleston, WV

Current Version | Previous Version | Graphics & Text | Print | Product List | Glossary On
Versions: 1 2 3 4 5 6 7 8 9 10 11 12 13 14 15 16 17 18 19 20 21 22 23 24
000
FTUS41 KRLX 230520
TAFPKB
TAF
KPKB 230520Z 2306/2406 00000KT 1SM BR BKN002
     FM230700 00000KT 1/4SM FG VV001
     FM231330 00000KT 2SM BR BKN002
     FM231430 04004KT P6SM FEW250=

USA.gov is the U.S. government's official web portal to all federal, state and local government web resources and services.